Time;durP1;ratioP1;P1;durP2;ratioP2;P2;SDS_P1;SDS_P2;PMS_P1;PMS_P2;Temp;Humidity;BMP_temperature;BMP_pressure;BME280_temperature;BME280_humidity;BME280_pressure;Samples;Min_cycle;Max_cycle;Signal;HPM_P1;HPM_P2
2024/03/08 00:01:48;;;;;;;20.27;9.00;;;3.90;99.90;;;;;;5072003;28;20070;-56
2024/03/08 00:04:15;;;;;;;20.63;8.60;;;3.90;99.90;;;;;;5071990;28;20089;-51
2024/03/08 00:06:41;;;;;;;18.57;8.23;;;4.00;99.90;;;;;;5071888;28;20036;-55
2024/03/08 00:09:07;;;;;;;18.43;8.00;;;4.00;99.90;;;;;;5071906;28;20093;-56
2024/03/08 00:11:34;;;;;;;17.57;8.07;;;3.90;99.90;;;;;;5071831;28;20028;-53
2024/03/08 00:14:00;;;;;;;18.87;8.73;;;3.90;99.90;;;;;;5071908;28;20115;-51
2024/03/08 00:16:26;;;;;;;19.50;9.07;;;3.90;99.90;;;;;;5070980;28;20124;-51
2024/03/08 00:18:51;;;;;;;18.73;8.77;;;3.80;99.90;;;;;;5070470;28;20029;-54
2024/03/08 00:21:17;;;;;;;19.73;8.77;;;3.70;99.90;;;;;;5071846;28;20032;-54
2024/03/08 00:23:43;;;;;;;19.27;8.60;;;3.70;99.90;;;;;;5071550;28;20492;-53
2024/03/08 00:26:08;;;;;;;23.13;9.73;;;3.60;99.90;;;;;;5071757;28;20028;-50
2024/03/08 00:28:34;;;;;;;19.43;8.53;;;3.70;99.90;;;;;;5071802;28;20029;-55
2024/03/08 00:31:00;;;;;;;20.37;9.07;;;3.60;99.90;;;;;;5071928;28;20036;-54
2024/03/08 00:33:27;;;;;;;18.23;8.77;;;3.50;99.90;;;;;;5071626;28;20067;-55
2024/03/08 00:35:55;;;;;;;22.23;9.40;;;3.50;99.90;;;;;;5071628;28;20044;-54
2024/03/08 00:38:21;;;;;;;21.10;8.80;;;3.50;99.90;;;;;;5070294;28;20032;-53
2024/03/08 00:40:47;;;;;;;18.57;8.23;;;3.40;99.90;;;;;;5070323;28;20044;-54
2024/03/08 00:43:13;;;;;;;18.67;8.57;;;3.40;99.90;;;;;;5071544;28;20039;-55
2024/03/08 00:45:38;;;;;;;24.23;9.70;;;3.40;99.90;;;;;;5071653;28;20481;-55
2024/03/08 00:48:05;;;;;;;17.67;8.67;;;3.30;99.90;;;;;;5071570;28;20089;-55
2024/03/08 00:50:31;;;;;;;18.37;8.50;;;3.30;99.90;;;;;;5071614;28;20108;-55
2024/03/08 00:52:56;;;;;;;20.13;9.13;;;3.30;99.90;;;;;;5071399;28;20405;-55
2024/03/08 00:55:22;;;;;;;20.73;9.13;;;3.20;99.90;;;;;;5071637;28;20439;-53
2024/03/08 00:57:48;;;;;;;19.23;8.80;;;3.30;99.90;;;;;;5071497;28;20035;-54
2024/03/08 01:00:13;;;;;;;18.20;8.70;;;3.30;99.90;;;;;;5071331;28;20075;-54
2024/03/08 01:02:40;;;;;;;19.80;9.50;;;3.20;99.90;;;;;;5069973;28;20029;-53
2024/03/08 01:05:08;;;;;;;20.13;9.03;;;3.20;99.90;;;;;;5071388;28;20024;-53
2024/03/08 01:07:35;;;;;;;18.02;7.80;;;3.10;99.90;;;;;;5071464;28;20032;-54
2024/03/08 01:10:02;;;;;;;22.10;9.53;;;3.10;99.90;;;;;;5071343;28;20111;-53
2024/03/08 01:12:29;;;;;;;19.80;8.93;;;3.10;99.90;;;;;;5071264;28;20077;-54
2024/03/08 01:14:55;;;;;;;21.83;9.00;;;3.10;99.90;;;;;;5071323;28;20473;-54
2024/03/08 01:17:20;;;;;;;18.17;8.47;;;3.10;99.90;;;;;;5071350;28;20121;-55
2024/03/08 01:19:46;;;;;;;19.30;9.20;;;3.00;99.90;;;;;;5071254;28;20056;-52
2024/03/08 01:22:11;;;;;;;19.70;9.10;;;3.00;99.90;;;;;;5071068;28;20393;-53
2024/03/08 01:24:37;;;;;;;18.73;8.50;;;3.00;99.90;;;;;;5071224;28;20100;-54
2024/03/08 01:27:03;;;;;;;22.33;9.93;;;3.00;99.90;;;;;;5071248;28;20425;-53
2024/03/08 01:29:32;;;;;;;17.50;8.53;;;3.00;99.90;;;;;;5074853;28;20043;-51
2024/03/08 01:32:00;;;;;;;23.33;10.40;;;2.90;99.90;;;;;;5074893;28;20043;-54
2024/03/08 01:34:28;;;;;;;20.87;9.63;;;2.90;99.90;;;;;;5074905;28;20385;-51
2024/03/08 01:36:55;;;;;;;19.43;9.23;;;2.90;99.90;;;;;;5074927;28;20498;-53
2024/03/08 01:39:21;;;;;;;20.43;9.13;;;2.90;99.90;;;;;;5074580;28;20033;-53
2024/03/08 01:41:47;;;;;;;19.90;9.33;;;2.80;99.90;;;;;;5074760;28;20120;-53
2024/03/08 01:44:17;;;;;;;20.33;9.30;;;2.80;99.90;;;;;;5074740;28;20106;-49
2024/03/08 01:46:44;;;;;;;21.67;9.75;;;2.80;99.90;;;;;;5074621;28;20485;-51
2024/03/08 01:49:11;;;;;;;22.73;9.67;;;2.80;99.90;;;;;;5074908;28;20444;-53
2024/03/08 01:51:37;;;;;;;23.17;9.60;;;2.70;99.90;;;;;;5074502;28;20108;-51
2024/03/08 01:54:03;;;;;;;21.30;9.47;;;2.70;99.90;;;;;;5074558;28;20140;-52
2024/03/08 01:56:31;;;;;;;24.70;10.27;;;2.70;99.90;;;;;;5074578;28;20076;-50
2024/03/08 01:58:58;;;;;;;19.03;8.77;;;2.70;99.90;;;;;;5074395;28;20036;-50
2024/03/08 02:01:25;;;;;;;21.83;9.17;;;2.70;99.90;;;;;;5074894;28;20465;-50
2024/03/08 02:03:51;;;;;;;20.03;8.87;;;2.80;99.90;;;;;;5074256;28;20452;-54
2024/03/08 02:06:17;;;;;;;19.40;8.90;;;2.80;99.90;;;;;;5074311;28;20103;-55
2024/03/08 02:08:44;;;;;;;23.40;9.73;;;2.70;99.90;;;;;;5074231;28;20370;-55
2024/03/08 02:11:11;;;;;;;21.20;9.70;;;2.70;99.90;;;;;;5074115;28;20110;-55
2024/03/08 02:13:36;;;;;;;18.70;8.93;;;2.70;99.90;;;;;;5074068;28;20478;-54
2024/03/08 02:16:02;;;;;;;20.70;9.80;;;2.70;99.90;;;;;;5074046;28;20032;-55
2024/03/08 02:18:29;;;;;;;20.47;9.27;;;2.60;99.90;;;;;;5074068;28;20037;-54
2024/03/08 02:20:59;;;;;;;23.80;9.87;;;2.60;99.90;;;;;;5073956;28;20025;-54
2024/03/08 02:23:25;;;;;;;24.40;10.87;;;2.60;99.90;;;;;;5073872;28;20566;-53
2024/03/08 02:25:53;;;;;;;19.37;8.70;;;2.60;99.90;;;;;;5074009;28;20086;-54
2024/03/08 02:28:19;;;;;;;22.40;10.37;;;2.50;99.90;;;;;;5073993;28;20436;-53
2024/03/08 02:30:46;;;;;;;19.83;9.30;;;2.50;99.90;;;;;;5073756;28;20032;-54
2024/03/08 02:33:16;;;;;;;25.33;9.47;;;2.40;99.90;;;;;;5073726;28;20119;-54
2024/03/08 02:35:45;;;;;;;17.93;9.17;;;2.40;99.90;;;;;;5073820;28;20033;-54
2024/03/08 02:38:18;;;;;;;22.77;10.27;;;2.30;99.90;;;;;;5072544;28;20040;-54
2024/03/08 02:40:44;;;;;;;20.53;9.30;;;2.30;99.90;;;;;;5072907;28;20021;-55
2024/03/08 02:43:11;;;;;;;20.50;9.37;;;2.30;99.90;;;;;;5073515;28;20024;-54
2024/03/08 02:45:37;;;;;;;22.03;10.10;;;2.20;99.90;;;;;;5073584;28;20151;-52
2024/03/08 02:48:03;;;;;;;23.93;9.43;;;2.20;99.90;;;;;;5073671;28;20115;-55
2024/03/08 02:50:29;;;;;;;21.67;10.03;;;2.20;99.90;;;;;;5072281;28;20414;-54
2024/03/08 02:52:54;;;;;;;23.40;10.27;;;2.20;99.90;;;;;;5073346;28;20170;-54
2024/03/08 02:55:20;;;;;;;22.73;9.33;;;2.10;99.90;;;;;;5073459;28;20401;-54
2024/03/08 02:57:49;;;;;;;26.27;10.17;;;2.10;99.90;;;;;;5073481;28;20021;-53
2024/03/08 03:00:15;;;;;;;23.87;10.10;;;2.10;99.90;;;;;;5073149;28;20397;-54
2024/03/08 03:02:42;;;;;;;21.23;10.40;;;2.10;99.90;;;;;;5073232;28;20059;-54
2024/03/08 03:05:09;;;;;;;20.90;9.77;;;2.00;99.90;;;;;;5073502;28;20032;-55
2024/03/08 03:07:35;;;;;;;21.10;9.60;;;2.00;99.90;;;;;;5073258;28;20048;-54
2024/03/08 03:10:02;;;;;;;21.90;10.20;;;2.00;99.90;;;;;;5073059;28;20110;-55
2024/03/08 03:12:28;;;;;;;21.00;9.90;;;2.00;99.90;;;;;;5073040;28;20040;-54
2024/03/08 03:14:54;;;;;;;27.10;11.20;;;2.00;99.90;;;;;;5073140;28;20552;-55
2024/03/08 03:17:20;;;;;;;21.63;9.83;;;1.90;99.90;;;;;;5073015;28;20246;-53
2024/03/08 03:19:46;;;;;;;21.43;8.80;;;1.90;99.90;;;;;;5072915;28;20036;-55
2024/03/08 03:22:12;;;;;;;20.43;9.97;;;1.90;99.90;;;;;;5072746;28;20032;-54
2024/03/08 03:24:38;;;;;;;23.20;10.00;;;1.90;99.90;;;;;;5072871;28;20017;-55
2024/03/08 03:27:10;;;;;;;21.67;10.70;;;1.80;99.90;;;;;;5072938;28;20481;-55
2024/03/08 03:29:42;;;;;;;18.97;9.23;;;1.80;99.90;;;;;;5072610;28;20028;-54
2024/03/08 03:32:08;;;;;;;21.73;11.03;;;1.80;99.90;;;;;;5072778;28;20028;-54
2024/03/08 03:34:37;;;;;;;25.67;10.93;;;1.80;99.90;;;;;;5072592;28;20040;-55
2024/03/08 03:37:04;;;;;;;23.88;10.77;;;1.70;99.90;;;;;;5071431;28;20040;-54
2024/03/08 03:39:34;;;;;;;23.60;10.43;;;1.70;99.90;;;;;;5072339;28;20028;-55
2024/03/08 03:42:02;;;;;;;24.30;10.30;;;1.70;99.90;;;;;;5072471;28;20066;-54
2024/03/08 03:44:32;;;;;;;26.60;10.95;;;1.70;99.90;;;;;;5072388;28;20029;-52
2024/03/08 03:46:58;;;;;;;23.87;10.13;;;1.70;99.90;;;;;;5072446;28;20374;-55
2024/03/08 03:49:23;;;;;;;22.23;10.50;;;1.60;99.90;;;;;;5072302;28;20062;-55
2024/03/08 03:51:50;;;;;;;25.10;10.93;;;1.60;99.90;;;;;;5072164;28;20032;-55
2024/03/08 03:54:15;;;;;;;23.43;10.27;;;1.60;99.90;;;;;;5072253;28;20044;-54
2024/03/08 03:56:41;;;;;;;26.63;11.00;;;1.60;99.90;;;;;;5072304;28;20024;-53
2024/03/08 03:59:07;;;;;;;24.00;10.73;;;1.60;99.90;;;;;;5071921;28;20028;-55
2024/03/08 04:01:34;;;;;;;22.57;10.30;;;1.50;99.90;;;;;;5071947;28;20027;-55
2024/03/08 04:03:59;;;;;;;28.80;11.63;;;1.50;99.90;;;;;;5072193;28;20037;-54
2024/03/08 04:06:25;;;;;;;22.30;10.30;;;1.50;99.90;;;;;;5072015;28;20036;-53
2024/03/08 04:08:50;;;;;;;25.00;11.53;;;1.50;99.90;;;;;;5071953;28;20110;-54
2024/03/08 04:11:16;;;;;;;23.73;10.60;;;1.50;99.90;;;;;;5071975;28;20546;-52
2024/03/08 04:13:43;;;;;;;26.27;10.97;;;1.50;99.90;;;;;;5072188;28;20060;-54
2024/03/08 04:16:11;;;;;;;26.17;10.80;;;1.50;99.90;;;;;;5071773;28;20032;-54
2024/03/08 04:18:37;;;;;;;28.40;11.33;;;1.50;99.90;;;;;;5071774;28;20036;-52
2024/03/08 04:21:08;;;;;;;24.33;10.63;;;1.40;99.90;;;;;;5071665;28;20048;-50
2024/03/08 04:23:35;;;;;;;;;;;1.40;99.90;;;;;;5072294;28;20388;-49
2024/03/08 04:26:04;;;;;;;24.73;9.73;;;1.40;99.90;;;;;;5071755;28;19908;-54
2024/03/08 04:28:29;;;;;;;25.00;11.00;;;1.40;99.90;;;;;;5071755;28;20489;-54
2024/03/08 04:30:55;;;;;;;31.23;11.13;;;1.30;99.90;;;;;;5071791;28;20500;-54
2024/03/08 04:33:22;;;;;;;32.30;11.63;;;1.30;99.90;;;;;;5071660;28;20031;-52
2024/03/08 04:35:47;;;;;;;26.87;11.63;;;1.30;99.90;;;;;;5071631;28;20119;-54
2024/03/08 04:38:13;;;;;;;24.73;10.50;;;1.30;99.90;;;;;;5071859;28;20113;-53
2024/03/08 04:40:39;;;;;;;26.80;10.63;;;1.20;99.90;;;;;;5071646;28;20031;-53
2024/03/08 04:43:06;;;;;;;26.53;11.03;;;1.20;99.90;;;;;;5071486;28;20038;-52
2024/03/08 04:45:31;;;;;;;28.83;11.50;;;1.20;99.90;;;;;;5071610;28;20060;-54
2024/03/08 04:47:57;;;;;;;23.87;10.90;;;1.10;99.90;;;;;;5070456;28;20067;-53
2024/03/08 04:50:23;;;;;;;34.23;11.90;;;1.10;99.90;;;;;;5071417;28;20094;-53
2024/03/08 04:52:49;;;;;;;29.63;11.27;;;1.10;99.90;;;;;;5071409;28;20035;-54
2024/03/08 04:55:14;;;;;;;25.60;11.60;;;1.10;99.90;;;;;;5071868;28;20028;-54
2024/03/08 04:57:41;;;;;;;28.67;11.97;;;1.10;99.90;;;;;;5071565;28;20112;-49
2024/03/08 05:00:10;;;;;;;31.60;11.20;;;1.10;99.90;;;;;;5071715;28;20039;-54
2024/03/08 05:02:38;;;;;;;28.90;10.93;;;1.00;99.90;;;;;;5072186;28;20032;-54
2024/03/08 05:05:12;;;;;;;27.63;12.00;;;1.00;99.90;;;;;;5075438;28;20500;-54
2024/03/08 05:07:39;;;;;;;25.27;11.67;;;1.00;99.90;;;;;;5075596;28;20040;-55
2024/03/08 05:10:06;;;;;;;29.30;11.17;;;0.90;99.90;;;;;;5075436;28;20032;-54
2024/03/08 05:12:35;;;;;;;31.43;12.67;;;0.90;99.90;;;;;;5075334;28;20032;-54
2024/03/08 05:15:02;;;;;;;27.63;11.38;;;0.90;99.90;;;;;;5075375;28;20039;-54
2024/03/08 05:17:28;;;;;;;30.03;12.37;;;0.90;99.90;;;;;;5075240;28;20041;-55
2024/03/08 05:19:53;;;;;;;29.20;12.07;;;0.90;99.90;;;;;;5075093;28;20474;-52
2024/03/08 05:22:19;;;;;;;29.27;11.97;;;0.90;99.90;;;;;;5075097;28;20062;-53
2024/03/08 05:24:45;;;;;;;29.33;10.93;;;0.90;99.90;;;;;;5075159;28;20112;-54
2024/03/08 05:27:12;;;;;;;29.30;12.33;;;0.90;99.90;;;;;;5075140;28;20029;-55
2024/03/08 05:29:38;;;;;;;29.83;12.40;;;0.90;99.90;;;;;;5074969;28;20036;-52
2024/03/08 05:32:04;;;;;;;30.57;11.73;;;0.90;99.90;;;;;;5074872;28;20094;-54
2024/03/08 05:34:30;;;;;;;28.63;11.47;;;0.80;99.90;;;;;;5074956;28;20028;-55
2024/03/08 05:36:56;;;;;;;31.73;11.33;;;0.80;99.90;;;;;;5075073;28;20082;-50
2024/03/08 05:39:22;;;;;;;25.73;11.27;;;0.80;99.90;;;;;;5074640;28;20085;-55
2024/03/08 05:41:48;;;;;;;34.17;12.90;;;0.80;99.90;;;;;;5074761;28;20390;-50
2024/03/08 05:44:13;;;;;;;27.30;10.90;;;0.70;99.90;;;;;;5074749;28;20047;-54
2024/03/08 05:46:39;;;;;;;27.87;11.70;;;0.70;99.90;;;;;;5074680;28;20028;-55
2024/03/08 05:49:06;;;;;;;37.90;13.80;;;0.70;99.90;;;;;;5074693;28;20028;-52
2024/03/08 05:51:36;;;;;;;28.60;11.80;;;0.70;99.90;;;;;;5074481;28;20020;-50
2024/03/08 05:54:10;;;;;;;30.63;12.30;;;0.70;99.90;;;;;;5074660;28;20028;-51
2024/03/08 05:56:36;;;;;;;29.83;12.10;;;0.70;99.90;;;;;;5074420;28;20040;-53
2024/03/08 05:59:02;;;;;;;28.90;12.90;;;0.70;99.90;;;;;;5074399;28;20028;-54
2024/03/08 06:01:29;;;;;;;33.23;11.83;;;0.70;99.90;;;;;;5074415;28;20020;-52
2024/03/08 06:03:56;;;;;;;30.50;11.77;;;0.70;99.90;;;;;;5074517;28;20558;-52
2024/03/08 06:06:23;;;;;;;33.73;11.73;;;0.70;99.90;;;;;;5074387;28;20044;-54
2024/03/08 06:08:49;;;;;;;27.43;11.37;;;0.70;99.90;;;;;;5074389;28;20437;-54
2024/03/08 06:11:17;;;;;;;30.77;11.33;;;0.70;99.90;;;;;;5074317;28;20098;-54
2024/03/08 06:13:43;;;;;;;25.13;11.47;;;0.70;99.90;;;;;;5073481;28;20040;-55
2024/03/08 06:16:09;;;;;;;30.27;12.77;;;0.80;99.90;;;;;;5073585;28;20036;-55
2024/03/08 06:18:37;;;;;;;28.80;10.70;;;0.80;99.90;;;;;;5074116;28;20059;-53
2024/03/08 06:21:06;;;;;;;27.03;10.83;;;0.80;99.90;;;;;;5074144;28;20029;-55
2024/03/08 06:23:33;;;;;;;29.67;11.60;;;0.90;99.90;;;;;;5074437;28;20033;-55
2024/03/08 06:25:58;;;;;;;26.07;11.27;;;0.90;99.90;;;;;;5074101;28;20469;-52
2024/03/08 06:28:24;;;;;;;33.47;11.97;;;0.90;99.90;;;;;;5072772;28;20051;-52
2024/03/08 06:30:51;;;;;;;32.10;12.67;;;0.90;99.90;;;;;;5074013;28;20105;-55
2024/03/08 06:33:17;;;;;;;30.60;11.67;;;1.00;99.90;;;;;;5072613;28;20059;-50
2024/03/08 06:35:43;;;;;;;27.43;11.17;;;1.00;99.90;;;;;;5072533;28;20041;-55
2024/03/08 06:38:09;;;;;;;31.77;11.43;;;1.10;99.90;;;;;;5073807;28;20154;-49
2024/03/08 06:40:35;;;;;;;27.03;11.23;;;1.10;99.90;;;;;;5072409;28;20052;-55
2024/03/08 06:43:00;;;;;;;27.37;11.50;;;1.20;99.90;;;;;;5073499;28;20055;-54
2024/03/08 06:45:26;;;;;;;29.33;12.60;;;1.20;99.90;;;;;;5073645;28;20032;-50
2024/03/08 06:47:52;;;;;;;31.97;12.50;;;1.30;99.90;;;;;;5073723;28;20032;-53
2024/03/08 06:50:17;;;;;;;27.90;11.30;;;1.50;99.90;;;;;;5073376;28;20123;-55
2024/03/08 06:52:44;;;;;;;27.47;11.10;;;1.50;99.90;;;;;;5073394;28;20036;-54
2024/03/08 06:55:13;;;;;;;29.53;12.10;;;1.60;99.90;;;;;;5073465;28;20036;-54
2024/03/08 06:57:43;;;;;;;28.05;11.40;;;1.60;99.90;;;;;;5073479;28;20181;-53
2024/03/08 07:00:18;;;;;;;29.13;11.90;;;1.70;99.90;;;;;;5073317;28;20025;-53
2024/03/08 07:02:48;;;;;;;38.27;12.47;;;1.80;99.90;;;;;;5073354;28;20028;-54
2024/03/08 07:05:16;;;;;;;26.97;11.27;;;1.90;99.90;;;;;;5073289;28;20036;-54
2024/03/08 07:07:41;;;;;;;27.93;11.67;;;2.00;99.90;;;;;;5073272;28;20035;-53
2024/03/08 07:10:10;;;;;;;28.97;12.67;;;2.10;99.90;;;;;;5073033;28;20029;-51
2024/03/08 07:12:37;;;;;;;29.17;12.57;;;2.10;99.90;;;;;;5073050;28;20040;-53
2024/03/08 07:15:05;;;;;;;31.27;12.53;;;2.10;99.90;;;;;;5073083;28;20064;-51
2024/03/08 07:17:34;;;;;;;30.40;13.10;;;2.20;99.90;;;;;;5073039;28;20036;-51
2024/03/08 07:20:07;;;;;;;32.25;12.68;;;2.30;99.90;;;;;;5072871;28;20503;-53
2024/03/08 07:22:33;;;;;;;30.53;12.50;;;2.30;99.90;;;;;;5072782;28;20373;-50
2024/03/08 07:27:30;;;;;;;30.23;12.67;;;2.60;99.90;;;;;;5071578;28;20024;-50
2024/03/08 07:29:56;;;;;;;26.93;12.33;;;2.80;99.90;;;;;;5072715;28;20504;-54
2024/03/08 07:32:21;;;;;;;26.83;11.70;;;3.20;99.90;;;;;;5072561;28;20520;-55
2024/03/08 07:34:49;;;;;;;27.80;12.70;;;3.70;99.90;;;;;;5072624;28;20060;-52
2024/03/08 07:37:14;;;;;;;32.10;12.63;;;4.20;99.90;;;;;;5072612;28;20035;-51
2024/03/08 07:39:40;;;;;;;26.37;11.60;;;4.60;99.90;;;;;;5072358;28;20032;-53
2024/03/08 07:42:06;;;;;;;25.83;12.40;;;5.10;99.90;;;;;;5072517;28;20089;-52
2024/03/08 07:44:32;;;;;;;25.63;11.97;;;5.50;99.90;;;;;;5072414;28;20020;-52
2024/03/08 07:46:58;;;;;;;26.80;12.13;;;6.10;99.90;;;;;;5072561;28;20028;-52
2024/03/08 07:49:24;;;;;;;25.90;11.73;;;6.60;99.90;;;;;;5072265;28;20032;-51
2024/03/08 07:51:50;;;;;;;25.53;12.10;;;7.00;99.90;;;;;;5072129;28;20077;-53
2024/03/08 07:54:15;;;;;;;23.47;11.40;;;7.20;99.90;;;;;;5072336;28;20378;-51
2024/03/08 07:56:42;;;;;;;23.10;11.73;;;7.40;99.90;;;;;;5070969;28;20036;-53
2024/03/08 07:59:08;;;;;;;23.93;11.20;;;7.90;99.90;;;;;;5072217;28;20036;-54
2024/03/08 08:01:33;;;;;;;21.00;11.23;;;8.20;99.90;;;;;;5072110;28;20074;-51
2024/03/08 08:04:01;;;;;;;19.83;11.13;;;8.40;99.90;;;;;;5070895;28;20028;-51
2024/03/08 08:06:27;;;;;;;24.17;11.63;;;8.50;99.90;;;;;;5072188;28;20064;-53
2024/03/08 08:08:53;;;;;;;22.73;11.47;;;8.40;99.90;;;;;;5072103;28;20032;-51
2024/03/08 08:11:20;;;;;;;25.77;12.23;;;8.40;99.90;;;;;;5072130;28;20041;-53
2024/03/08 08:13:45;;;;;;;24.00;11.17;;;8.40;99.90;;;;;;5071892;28;20508;-50
2024/03/08 08:16:12;;;;;;;25.67;11.37;;;8.10;99.90;;;;;;5071903;28;20044;-51
2024/03/08 08:18:39;;;;;;;25.00;12.47;;;7.80;99.90;;;;;;5071984;28;20044;-54
2024/03/08 08:21:06;;;;;;;27.60;11.60;;;7.70;99.90;;;;;;5071856;28;20046;-51
2024/03/08 08:23:32;;;;;;;24.00;11.27;;;7.70;99.90;;;;;;5071744;28;20024;-55
2024/03/08 08:25:58;;;;;;;22.37;10.30;;;8.00;99.90;;;;;;5071838;28;20024;-55
2024/03/08 08:28:24;;;;;;;22.00;10.53;;;8.50;99.90;;;;;;5071779;28;20563;-54
2024/03/08 08:30:50;;;;;;;21.17;9.93;;;8.90;99.90;;;;;;5071905;28;20028;-54
2024/03/08 08:33:16;;;;;;;23.63;10.23;;;9.20;99.90;;;;;;5071632;28;20020;-53
2024/03/08 08:35:42;;;;;;;17.83;9.70;;;9.80;99.90;;;;;;5071731;28;20041;-53
2024/03/08 08:38:08;;;;;;;19.70;9.70;;;10.10;99.10;;;;;;5071041;28;20393;-56
2024/03/08 08:40:35;;;;;;;17.13;9.10;;;10.30;98.60;;;;;;5071783;28;20032;-54
2024/03/08 08:43:04;;;;;;;28.83;14.17;;;10.30;99.10;;;;;;5071639;28;20495;-54
2024/03/08 08:45:30;;;;;;;19.95;10.00;;;10.00;98.80;;;;;;5071660;28;20033;-54
2024/03/08 08:47:56;;;;;;;19.80;10.17;;;9.80;99.50;;;;;;5071687;28;20028;-54
2024/03/08 08:50:28;;;;;;;20.63;9.53;;;9.70;99.10;;;;;;5071604;28;20394;-55
2024/03/08 08:52:54;;;;;;;21.00;10.23;;;9.50;99.90;;;;;;5071434;28;20032;-54
2024/03/08 08:55:25;;;;;;;23.00;10.80;;;9.40;99.40;;;;;;5070265;28;20397;-54
2024/03/08 08:57:51;;;;;;;20.37;9.77;;;9.40;99.80;;;;;;5071596;28;20478;-51
2024/03/08 09:00:20;;;;;;;20.73;9.87;;;9.40;99.80;;;;;;5071388;28;20032;-55
2024/03/08 09:02:46;;;;;;;25.10;11.00;;;9.50;99.50;;;;;;5071423;28;20031;-54
2024/03/08 09:05:14;;;;;;;19.77;9.73;;;9.40;99.30;;;;;;5071520;28;20111;-56
2024/03/08 09:07:40;;;;;;;23.17;9.73;;;9.20;99.70;;;;;;5071809;28;20455;-55
2024/03/08 09:10:06;;;;;;;20.17;10.30;;;9.10;99.90;;;;;;5071387;28;20083;-55
2024/03/08 09:12:32;;;;;;;21.53;10.60;;;9.10;99.90;;;;;;5071389;28;20036;-53
2024/03/08 09:14:59;;;;;;;23.93;9.77;;;9.10;99.90;;;;;;5071370;28;20033;-53
2024/03/08 09:17:25;;;;;;;24.97;10.43;;;9.40;99.60;;;;;;5071343;28;20447;-55
2024/03/08 09:19:51;;;;;;;21.80;9.77;;;9.50;99.90;;;;;;5071113;28;20028;-56
2024/03/08 09:22:18;;;;;;;18.63;9.97;;;9.70;99.00;;;;;;5071542;28;20017;-55
2024/03/08 09:24:43;;;;;;;19.40;9.73;;;9.90;99.90;;;;;;5071221;28;20477;-54
2024/03/08 09:27:09;;;;;;;22.33;9.97;;;9.90;99.80;;;;;;5071386;28;20028;-52
2024/03/08 09:29:35;;;;;;;19.90;9.83;;;10.20;98.50;;;;;;5071157;28;20041;-55
2024/03/08 09:32:01;;;;;;;19.33;9.63;;;10.20;99.10;;;;;;5071114;28;20031;-55
2024/03/08 09:34:27;;;;;;;19.47;9.73;;;10.30;98.10;;;;;;5071215;28;20024;-52
2024/03/08 09:36:52;;;;;;;22.47;10.50;;;10.40;99.00;;;;;;5071191;28;20554;-55
2024/03/08 09:39:20;;;;;;;24.30;11.37;;;10.70;98.20;;;;;;5071118;28;20033;-56
2024/03/08 09:41:49;;;;;;;18.70;9.37;;;11.20;97.50;;;;;;5071123;28;20058;-55
2024/03/08 09:44:19;;;;;;;19.67;9.73;;;11.70;96.30;;;;;;5071256;28;20024;-55
2024/03/08 09:46:47;;;;;;;23.63;10.95;;;12.10;95.70;;;;;;5071345;28;20025;-51
2024/03/08 09:49:13;;;;;;;21.70;11.10;;;12.80;95.80;;;;;;5072825;28;20396;-54
2024/03/08 09:51:40;;;;;;;21.17;10.45;;;13.30;94.10;;;;;;5074748;28;20043;-53
2024/03/08 09:54:06;;;;;;;21.65;11.30;;;14.10;92.90;;;;;;5074714;28;20039;-56
2024/03/08 09:56:33;;;;;;;17.05;10.15;;;14.90;91.60;;;;;;5074562;28;20385;-55
2024/03/08 10:01:31;;;;;;;17.17;10.00;;;15.70;88.20;;;;;;5074393;28;20029;-54
2024/03/08 10:03:57;;;;;;;21.58;10.25;;;16.20;89.10;;;;;;5074549;28;20028;-55
2024/03/08 10:06:24;;;;;;;17.73;10.20;;;16.70;85.00;;;;;;5074390;28;20054;-55
2024/03/08 10:08:51;;;;;;;18.08;9.82;;;17.20;82.10;;;;;;5074367;28;20508;-55
2024/03/08 10:11:18;;;;;;;17.13;9.82;;;17.60;80.30;;;;;;5073078;28;20265;-56
2024/03/08 10:13:46;;;;;;;18.55;10.40;;;17.90;79.00;;;;;;5074235;28;20119;-56
2024/03/08 10:16:12;;;;;;;17.05;10.70;;;18.20;76.50;;;;;;5074201;28;20044;-55
2024/03/08 10:18:38;;;;;;;18.58;11.18;;;18.30;75.70;;;;;;5074179;28;20489;-56
2024/03/08 10:21:10;;;;;;;16.52;10.25;;;18.70;74.40;;;;;;5074038;28;20044;-56
2024/03/08 10:23:36;;;;;;;15.35;9.57;;;18.80;73.30;;;;;;5072532;28;20396;-55
2024/03/08 10:26:20;;;;;;;17.23;9.65;;;19.40;68.70;;;;;;5074034;28;20112;-55
2024/03/08 10:28:47;;;;;;;17.88;10.45;;;19.60;69.50;;;;;;5073989;28;20029;-55
2024/03/08 10:31:14;;;;;;;17.17;9.95;;;19.70;67.90;;;;;;5074070;28;20102;-55
2024/03/08 10:33:41;;;;;;;17.15;11.43;;;19.80;66.90;;;;;;5073815;28;20035;-55
2024/03/08 10:36:10;;;;;;;14.43;9.48;;;20.50;64.40;;;;;;5074274;28;20060;-55
2024/03/08 10:38:41;;;;;;;16.55;10.18;;;20.50;64.10;;;;;;5073951;28;20037;-55
2024/03/08 10:41:09;;;;;;;17.13;9.73;;;20.80;62.60;;;;;;5073770;28;20162;-55
2024/03/08 10:43:55;;;;;;;14.38;8.85;;;20.10;63.20;;;;;;5073740;28;20063;-56
2024/03/08 10:46:33;;;;;;;15.02;9.35;;;19.70;63.00;;;;;;5073784;28;20024;-56
2024/03/08 10:49:04;;;;;;;19.30;10.93;;;19.80;63.80;;;;;;5073605;28;20060;-56
2024/03/08 10:51:31;;;;;;;16.63;9.60;;;19.50;63.50;;;;;;5073626;28;20032;-56
2024/03/08 10:53:59;;;;;;;12.43;8.52;;;19.50;63.00;;;;;;5073563;28;20093;-55
2024/03/08 10:56:27;;;;;;;14.30;9.18;;;19.20;62.50;;;;;;5073596;28;20111;-54
2024/03/08 10:58:55;;;;;;;15.52;9.20;;;18.80;63.70;;;;;;5073460;28;20043;-56
2024/03/08 11:01:21;;;;;;;16.30;8.75;;;18.60;64.40;;;;;;5071543;28;20032;-56
2024/03/08 11:03:53;;;;;;;15.05;9.30;;;18.50;65.50;;;;;;5073287;28;20024;-55
2024/03/08 11:06:45;;;;;;;17.08;10.25;;;18.50;65.70;;;;;;5073312;28;20037;-56
2024/03/08 11:09:35;;;;;;;16.58;8.85;;;18.50;65.30;;;;;;5066450;28;20040;-56
2024/03/08 11:12:29;;;;;;;16.17;9.10;;;18.10;64.70;;;;;;5073221;28;20037;-55
2024/03/08 11:15:04;;;;;;;14.48;8.32;;;17.70;64.80;;;;;;5073091;28;20032;-55
2024/03/08 11:17:32;;;;;;;18.27;9.38;;;17.40;65.20;;;;;;5073038;28;20064;-53
2024/03/08 11:20:05;;;;;;;14.45;8.75;;;17.00;66.50;;;;;;5072774;28;20477;-53
2024/03/08 11:22:33;;;;;;;18.10;9.85;;;16.60;67.70;;;;;;5073032;28;20024;-55
2024/03/08 11:25:09;;;;;;;16.92;9.15;;;16.50;69.60;;;;;;5072959;28;20175;-55
2024/03/08 11:27:38;;;;;;;14.65;9.02;;;16.10;70.50;;;;;;5071715;28;20078;-55
2024/03/08 11:30:12;;;;;;;16.52;9.00;;;15.80;70.50;;;;;;5072757;28;20032;-55
2024/03/08 11:32:38;;;;;;;14.27;8.45;;;15.80;70.50;;;;;;5072678;28;20111;-55
2024/03/08 11:35:18;;;;;;;15.52;7.97;;;16.40;68.60;;;;;;5072722;28;20505;-54
2024/03/08 11:37:44;;;;;;;15.88;8.30;;;16.70;68.40;;;;;;5073137;28;20036;-56
2024/03/08 11:40:16;;;;;;;16.33;8.88;;;17.40;65.80;;;;;;5072551;28;20028;-55
2024/03/08 11:42:48;;;;;;;14.38;8.02;;;17.50;67.20;;;;;;5072440;28;20086;-53
2024/03/08 11:45:16;;;;;;;13.60;7.68;;;17.60;66.30;;;;;;5072478;28;20060;-55
2024/03/08 11:47:42;;;;;;;16.40;9.20;;;17.90;65.30;;;;;;5071351;28;20039;-51
2024/03/08 11:50:11;;;;;;;19.55;9.30;;;17.90;64.90;;;;;;5072316;28;20033;-52
2024/03/08 11:52:37;;;;;;;18.92;11.10;;;17.90;66.80;;;;;;5071105;28;20056;-54
2024/03/08 11:55:05;;;;;;;17.60;10.00;;;17.60;66.90;;;;;;5072413;28;20452;-52
2024/03/08 11:57:31;;;;;;;22.63;11.70;;;17.20;69.00;;;;;;5072322;28;20130;-55
2024/03/08 11:59:58;;;;;;;20.80;10.85;;;17.20;68.90;;;;;;5072138;28;20477;-53
2024/03/08 12:02:25;;;;;;;17.45;11.23;;;17.20;68.60;;;;;;5072132;28;20036;-53
2024/03/08 12:04:57;;;;;;;21.48;11.90;;;18.20;67.90;;;;;;5072136;28;20025;-56
2024/03/08 12:07:23;;;;;;;20.83;11.77;;;18.80;67.20;;;;;;5072197;28;20028;-55
2024/03/08 12:10:17;;;;;;;19.73;11.98;;;19.50;66.10;;;;;;5071967;28;20393;-56
2024/03/08 12:12:51;;;;;;;21.90;13.15;;;20.10;63.90;;;;;;5071096;28;20044;-58
2024/03/08 12:15:18;;;;;;;18.77;12.32;;;20.30;64.30;;;;;;5072032;28;20028;-57
2024/03/08 12:17:47;;;;;;;19.65;12.23;;;20.50;62.50;;;;;;5072011;28;20081;-56
2024/03/08 12:20:18;;;;;;;20.10;12.50;;;20.80;62.30;;;;;;5071808;28;20035;-54
2024/03/08 12:22:44;;;;;;;21.65;11.95;;;20.60;62.80;;;;;;5071842;28;20043;-56
2024/03/08 12:25:13;;;;;;;19.63;11.93;;;19.90;62.60;;;;;;5070574;28;20024;-56
2024/03/08 12:27:40;;;;;;;20.48;12.40;;;19.20;64.50;;;;;;5071944;28;20104;-56
2024/03/08 12:30:17;;;;;;;19.08;11.90;;;18.00;66.20;;;;;;5071773;28;20404;-55
2024/03/08 12:32:53;;;;;;;18.33;11.10;;;17.40;67.20;;;;;;5071692;28;20466;-54
2024/03/08 12:35:22;;;;;;;19.90;12.00;;;17.50;67.20;;;;;;5071886;28;20434;-55
2024/03/08 12:37:49;;;;;;;19.52;11.50;;;17.80;65.90;;;;;;5071808;28;20036;-55
2024/03/08 12:40:16;;;;;;;19.55;11.70;;;17.90;67.00;;;;;;5071693;28;20036;-54
2024/03/08 12:42:44;;;;;;;21.95;11.50;;;17.80;66.90;;;;;;5071650;28;20025;-55
2024/03/08 12:45:10;;;;;;;24.60;12.35;;;17.50;67.20;;;;;;5070396;28;20078;-51